createdAt,value
2019-04-22T00:11:03.215Z,12.30
2019-04-22T00:41:06.875Z,11.60
2019-04-22T01:11:12.052Z,11.10
2019-04-22T01:41:15.992Z,10.70
2019-04-22T02:11:29.321Z,10.40
2019-04-22T02:41:41.026Z,9.70
2019-04-22T03:42:05.161Z,8.60
2019-04-22T04:12:01.967Z,8.10
2019-04-22T04:42:08.811Z,7.80
2019-04-22T05:12:14.824Z,7.60
2019-04-22T05:42:03.661Z,8.20
2019-04-22T06:11:58.961Z,10.10
2019-04-22T06:42:19.253Z,12.60
2019-04-22T07:12:18.674Z,16.60
2019-04-22T07:42:24.522Z,16.80
2019-04-22T08:12:34.918Z,22.00
2019-04-22T08:42:43.515Z,16.60
2019-04-22T09:12:51.997Z,15.10
2019-04-22T10:12:46.742Z,17.70
2019-04-22T10:42:33.596Z,15.20
2019-04-22T11:12:38.067Z,13.80
2019-04-22T11:42:43.902Z,13.80
2019-04-22T12:12:49.628Z,13.70
2019-04-22T12:42:55.315Z,14.00
2019-04-22T13:13:00.747Z,14.20
2019-04-22T13:43:05.100Z,15.20
2019-04-22T14:13:09.913Z,15.70
2019-04-22T14:43:44.910Z,16.50
2019-04-22T15:13:21.096Z,17.60
2019-04-22T15:43:28.917Z,17.70
2019-04-22T16:13:33.944Z,17.40
2019-04-22T16:43:36.573Z,18.30
2019-04-22T17:13:42.479Z,17.30
2019-04-22T17:44:13.599Z,17.40
2019-04-22T18:14:31.576Z,16.60
2019-04-22T18:44:22.765Z,15.80
2019-04-22T19:14:24.203Z,15.30
2019-04-22T19:44:36.387Z,14.60
2019-04-22T20:14:35.831Z,14.30
2019-04-22T20:44:50.459Z,14.10
2019-04-22T21:14:53.276Z,13.90
2019-04-22T21:44:49.998Z,13.40
2019-04-22T22:14:57.670Z,13.00
2019-04-22T22:44:48.113Z,12.40
2019-04-22T23:15:04.701Z,11.90
2019-04-22T23:45:19.194Z,11.60
